Time;durP1;ratioP1;P1;durP2;ratioP2;P2;SDS_P1;SDS_P2;PMS_P1;PMS_P2;Temp;Humidity;BMP_temperature;BMP_pressure;BME280_temperature;BME280_humidity;BME280_pressure;Samples;Min_cycle;Max_cycle;Signal;HPM_P1;HPM_P2
2022/10/24 00:01:16;;;;;;;4.22;2.35;;;16.40;99.90;;;;;;929730;149;27807;-79
2022/10/24 00:03:43;;;;;;;2.55;2.15;;;16.40;99.90;;;;;;939088;150;27445;-79
2022/10/24 00:06:09;;;;;;;4.50;2.33;;;16.40;99.90;;;;;;937573;150;27394;-79
2022/10/24 00:08:36;;;;;;;3.27;1.80;;;16.30;99.90;;;;;;937354;151;27384;-79
2022/10/24 00:11:02;;;;;;;3.02;1.80;;;16.30;99.90;;;;;;940732;150;27353;-79
2022/10/24 00:13:29;;;;;;;2.47;2.20;;;16.30;99.90;;;;;;937886;151;27691;-79
2022/10/24 00:15:56;;;;;;;4.83;2.30;;;16.30;99.90;;;;;;938900;150;27271;-79
2022/10/24 00:18:22;;;;;;;3.47;2.15;;;16.20;99.90;;;;;;940017;150;27326;-79
2022/10/24 00:20:49;;;;;;;3.52;2.17;;;16.20;99.90;;;;;;939205;151;27310;-79
2022/10/24 00:23:15;;;;;;;2.92;2.25;;;16.20;99.90;;;;;;937627;151;27351;-79
2022/10/24 00:25:42;;;;;;;3.00;2.08;;;16.20;99.90;;;;;;938548;151;27413;-79
2022/10/24 00:28:08;;;;;;;3.12;1.98;;;16.20;99.90;;;;;;938062;148;27429;-79
2022/10/24 00:30:35;;;;;;;2.10;1.90;;;16.10;99.90;;;;;;939885;148;27401;-79
2022/10/24 00:33:02;;;;;;;2.10;1.90;;;16.10;99.90;;;;;;937614;148;27363;-79
2022/10/24 00:35:28;;;;;;;3.70;2.05;;;16.10;99.90;;;;;;939051;148;27339;-79
2022/10/24 00:37:55;;;;;;;4.47;2.10;;;16.10;99.90;;;;;;939755;148;28841;-79
2022/10/24 00:40:21;;;;;;;3.30;2.27;;;16.00;99.90;;;;;;936596;151;28222;-79
2022/10/24 00:42:48;;;;;;;4.33;2.47;;;16.00;99.90;;;;;;937807;150;27430;-79
2022/10/24 00:45:36;;;;;;;4.45;2.30;;;16.00;99.90;;;;;;937662;150;27344;-79
2022/10/24 00:48:02;;;;;;;3.70;2.40;;;16.00;99.90;;;;;;940839;148;27331;-79
2022/10/24 00:50:29;;;;;;;4.40;2.42;;;15.90;99.90;;;;;;937264;148;27420;-79
2022/10/24 00:52:55;;;;;;;4.80;3.27;;;15.90;99.90;;;;;;938533;150;27312;-79
2022/10/24 00:55:22;;;;;;;8.28;2.80;;;15.90;99.90;;;;;;938017;151;27397;-78
2022/10/24 00:57:52;;;;;;;3.25;2.30;;;15.90;99.90;;;;;;939014;148;27393;-79
2022/10/24 01:00:18;;;;;;;6.33;2.92;;;15.90;99.90;;;;;;938852;148;27355;-79
2022/10/24 01:02:45;;;;;;;2.17;2.00;;;15.90;99.90;;;;;;938794;150;27913;-78
2022/10/24 01:05:11;;;;;;;2.37;2.05;;;15.90;99.90;;;;;;938836;151;27341;-79
2022/10/24 01:07:41;;;;;;;4.70;2.42;;;15.90;99.90;;;;;;938316;148;27318;-78
2022/10/24 01:10:07;;;;;;;2.98;2.00;;;15.90;99.90;;;;;;938219;148;27397;-79
2022/10/24 01:12:43;;;;;;;3.35;2.15;;;15.90;99.90;;;;;;937104;148;27322;-79
2022/10/24 01:15:18;;;;;;;5.53;2.33;;;15.90;99.90;;;;;;938480;148;27309;-79
2022/10/24 01:17:45;;;;;;;1.90;1.72;;;15.90;99.90;;;;;;937935;148;27322;-79
2022/10/24 01:20:29;;;;;;;3.25;2.05;;;15.80;99.90;;;;;;936946;148;27285;-79
2022/10/24 01:23:26;;;;;;;5.10;2.55;;;15.80;99.90;;;;;;937598;148;27384;-80
2022/10/24 01:25:58;;;;;;;7.40;2.72;;;15.80;99.90;;;;;;935976;151;27372;-80
2022/10/24 01:28:25;;;;;;;5.67;2.35;;;15.80;99.90;;;;;;940299;148;27334;-79
2022/10/24 01:31:00;;;;;;;5.00;3.02;;;15.80;99.90;;;;;;937504;148;27244;-80
2022/10/24 01:33:29;;;;;;;5.47;2.10;;;15.70;99.90;;;;;;936134;150;27414;-79
2022/10/24 01:35:56;;;;;;;4.50;2.22;;;15.70;99.90;;;;;;938017;150;27342;-79
2022/10/24 01:38:35;;;;;;;4.25;2.02;;;15.70;99.90;;;;;;937371;148;27364;-79
2022/10/24 01:41:01;;;;;;;2.47;1.92;;;15.70;99.90;;;;;;937171;150;27315;-79
2022/10/24 01:43:28;;;;;;;3.77;2.10;;;15.70;99.90;;;;;;938348;148;27247;-79
2022/10/24 01:45:55;;;;;;;4.37;2.50;;;15.70;99.90;;;;;;934538;149;27376;-80
2022/10/24 01:48:21;;;;;;;5.65;2.50;;;15.70;99.90;;;;;;950493;146;27426;-80
2022/10/24 01:50:48;;;;;;;5.60;3.87;;;15.70;99.90;;;;;;950141;146;27356;-80
2022/10/24 01:53:14;;;;;;;5.65;2.70;;;15.80;99.90;;;;;;931271;149;27901;-80
2022/10/24 01:55:41;;;;;;;9.05;2.62;;;15.80;99.90;;;;;;950952;146;27446;-80
2022/10/24 01:58:08;;;;;;;5.08;2.10;;;15.80;99.90;;;;;;950657;146;27426;-80
2022/10/24 02:00:34;;;;;;;6.22;2.65;;;15.80;99.90;;;;;;950914;146;27360;-80
2022/10/24 02:03:38;;;;;;;2.40;2.20;;;15.80;99.90;;;;;;945949;146;27336;-80
2022/10/24 02:06:08;;;;;;;4.87;2.37;;;15.90;99.90;;;;;;933416;148;27458;-79
2022/10/24 02:08:34;;;;;;;4.12;2.15;;;15.90;99.90;;;;;;931620;148;27426;-79
2022/10/24 02:11:01;;;;;;;3.92;2.22;;;15.90;99.90;;;;;;935285;148;27884;-79
2022/10/24 02:13:27;;;;;;;4.90;2.20;;;15.90;99.90;;;;;;935318;148;27294;-79
2022/10/24 02:15:54;;;;;;;5.42;3.00;;;15.90;99.90;;;;;;935599;148;27412;-79
2022/10/24 02:18:20;;;;;;;4.35;2.65;;;15.90;99.90;;;;;;934567;148;27430;-79
2022/10/24 02:21:02;;;;;;;6.53;2.80;;;15.90;99.90;;;;;;934535;148;27286;-79
2022/10/24 02:23:31;;;;;;;7.97;2.65;;;15.90;99.90;;;;;;934056;148;27499;-79
2022/10/24 02:25:58;;;;;;;4.42;2.75;;;15.90;99.90;;;;;;939447;147;27370;-79
2022/10/24 02:28:24;;;;;;;3.40;2.47;;;15.90;99.90;;;;;;933215;148;27318;-79
2022/10/24 02:31:00;;;;;;;5.05;2.58;;;15.90;99.90;;;;;;934324;148;27319;-79
2022/10/24 02:33:26;;;;;;;7.83;2.62;;;15.90;99.90;;;;;;933859;148;27374;-79
2022/10/24 02:35:53;;;;;;;8.28;2.77;;;15.90;99.90;;;;;;936921;148;27317;-79
2022/10/24 02:38:22;;;;;;;3.70;2.25;;;16.00;99.90;;;;;;935168;146;27419;-79
2022/10/24 02:40:49;;;;;;;6.62;2.42;;;15.90;99.90;;;;;;934298;148;27363;-79
2022/10/24 02:43:15;;;;;;;4.10;2.72;;;16.00;99.90;;;;;;932481;148;27448;-79
2022/10/24 02:45:42;;;;;;;4.60;2.35;;;15.90;99.90;;;;;;934172;148;27757;-79
2022/10/24 02:48:09;;;;;;;5.78;3.00;;;16.00;99.90;;;;;;933227;148;28336;-79
2022/10/24 02:50:35;;;;;;;4.67;2.92;;;16.00;99.90;;;;;;933715;148;27358;-79
2022/10/24 02:53:02;;;;;;;4.92;2.52;;;15.90;99.90;;;;;;934010;148;27451;-79
2022/10/24 02:55:28;;;;;;;6.03;2.50;;;16.00;99.90;;;;;;934531;148;27367;-79
2022/10/24 02:57:55;;;;;;;5.03;2.95;;;16.00;99.90;;;;;;934155;148;27450;-79
2022/10/24 03:00:21;;;;;;;3.72;1.98;;;15.90;99.90;;;;;;933085;148;28814;-79
2022/10/24 03:02:48;;;;;;;11.03;3.25;;;15.90;99.90;;;;;;932760;148;27343;-79
2022/10/24 03:05:15;;;;;;;8.33;3.17;;;15.90;99.90;;;;;;934272;148;27357;-79
2022/10/24 03:07:41;;;;;;;7.60;2.55;;;15.90;99.90;;;;;;934182;148;27410;-79
2022/10/24 03:10:08;;;;;;;8.38;2.98;;;15.90;99.90;;;;;;933645;148;27359;-79
2022/10/24 03:12:34;;;;;;;6.30;3.00;;;15.90;99.90;;;;;;936147;148;27451;-79
2022/10/24 03:15:01;;;;;;;5.70;2.80;;;15.90;99.90;;;;;;936519;148;27472;-79
2022/10/24 03:17:28;;;;;;;6.58;2.60;;;15.90;99.90;;;;;;935036;148;27340;-79
2022/10/24 03:19:54;;;;;;;5.87;3.12;;;15.90;99.90;;;;;;933411;148;27331;-79
2022/10/24 03:22:21;;;;;;;4.75;2.42;;;16.00;99.90;;;;;;935072;148;27316;-79
2022/10/24 03:24:47;;;;;;;5.40;2.65;;;16.00;99.90;;;;;;933568;148;27390;-79
2022/10/24 03:27:14;;;;;;;4.80;2.92;;;16.00;99.90;;;;;;934967;148;27461;-79
2022/10/24 03:29:41;;;;;;;7.28;2.42;;;16.00;99.90;;;;;;936161;148;27305;-79
2022/10/24 03:32:07;;;;;;;6.28;2.67;;;16.00;99.90;;;;;;933508;148;27318;-79
2022/10/24 03:34:34;;;;;;;6.40;2.85;;;16.00;99.90;;;;;;933854;147;27434;-79
2022/10/24 03:37:00;;;;;;;7.85;2.90;;;16.10;99.90;;;;;;933106;148;27354;-78
2022/10/24 03:39:27;;;;;;;6.87;2.60;;;16.10;99.90;;;;;;933042;148;27357;-78
2022/10/24 03:41:54;;;;;;;6.00;2.67;;;16.10;99.90;;;;;;936100;148;27429;-78
2022/10/24 03:44:20;;;;;;;5.65;2.35;;;16.10;99.90;;;;;;935009;148;27539;-78
2022/10/24 03:46:47;;;;;;;6.95;2.60;;;16.10;99.90;;;;;;933925;149;27258;-79
2022/10/24 03:49:13;;;;;;;10.72;3.77;;;16.10;99.90;;;;;;932593;149;27366;-79
2022/10/24 03:51:40;;;;;;;6.58;2.65;;;16.10;99.90;;;;;;931679;149;27405;-79
2022/10/24 03:54:06;;;;;;;4.17;2.62;;;16.20;99.90;;;;;;932355;149;27328;-79
2022/10/24 03:56:33;;;;;;;7.12;2.20;;;16.20;99.90;;;;;;931393;149;27772;-79
2022/10/24 03:59:00;;;;;;;3.87;2.27;;;16.20;99.90;;;;;;932033;149;27294;-79
2022/10/24 04:01:26;;;;;;;4.87;2.25;;;16.20;99.90;;;;;;932296;149;27367;-79
2022/10/24 04:03:53;;;;;;;4.22;2.25;;;16.20;99.90;;;;;;931916;149;27413;-79
2022/10/24 04:06:19;;;;;;;4.22;2.35;;;16.20;99.90;;;;;;919883;154;28363;-79
2022/10/24 04:08:46;;;;;;;3.92;2.58;;;16.30;99.90;;;;;;935034;151;27404;-79
2022/10/24 04:11:13;;;;;;;4.83;2.72;;;16.30;99.90;;;;;;935414;149;27317;-79
2022/10/24 04:13:39;;;;;;;5.78;2.30;;;16.40;99.90;;;;;;936035;151;27341;-79
2022/10/24 04:16:06;;;;;;;3.37;2.37;;;16.40;99.90;;;;;;920270;151;27362;-79
2022/10/24 04:18:32;;;;;;;6.83;2.65;;;16.40;99.90;;;;;;918091;154;27447;-78
2022/10/24 04:20:59;;;;;;;4.17;2.65;;;16.50;99.90;;;;;;935882;149;27404;-78
2022/10/24 04:23:26;;;;;;;3.25;2.40;;;16.50;99.90;;;;;;935366;151;27378;-78
2022/10/24 04:25:52;;;;;;;6.67;2.52;;;16.50;99.90;;;;;;935455;148;27293;-78
2022/10/24 04:28:19;;;;;;;3.25;2.47;;;16.60;99.90;;;;;;935728;149;27347;-78
2022/10/24 04:30:45;;;;;;;5.10;3.12;;;16.60;99.90;;;;;;933270;148;27518;-78
2022/10/24 04:33:12;;;;;;;3.67;2.58;;;16.60;99.90;;;;;;934858;149;27355;-78
2022/10/24 04:35:39;;;;;;;3.70;2.65;;;16.60;99.90;;;;;;935732;148;27350;-78
2022/10/24 04:38:05;;;;;;;5.55;2.60;;;16.70;99.90;;;;;;935620;151;27424;-78
2022/10/24 04:40:32;;;;;;;5.35;2.67;;;16.70;99.90;;;;;;933415;151;27367;-79
2022/10/24 04:42:58;;;;;;;3.35;2.15;;;16.70;99.90;;;;;;935976;151;27506;-79
2022/10/24 04:45:25;;;;;;;5.35;2.77;;;16.70;99.90;;;;;;935972;148;27362;-79
2022/10/24 04:47:51;;;;;;;3.12;2.20;;;16.70;99.90;;;;;;919637;154;27354;-78
2022/10/24 04:50:18;;;;;;;5.25;2.40;;;16.70;99.90;;;;;;936549;149;27365;-78
2022/10/24 04:52:45;;;;;;;4.85;2.33;;;16.80;99.90;;;;;;936471;151;27304;-78
2022/10/24 04:55:11;;;;;;;5.00;2.20;;;16.80;99.90;;;;;;935720;148;27870;-78
2022/10/24 04:57:38;;;;;;;4.00;2.42;;;16.70;99.90;;;;;;922819;154;27355;-78
2022/10/24 05:00:05;;;;;;;4.20;2.60;;;16.70;99.90;;;;;;921135;154;27739;-78
2022/10/24 05:02:31;;;;;;;3.35;2.27;;;16.70;99.90;;;;;;919552;154;27315;-78
2022/10/24 05:04:58;;;;;;;5.20;2.45;;;16.70;99.90;;;;;;935224;148;27459;-78
2022/10/24 05:07:24;;;;;;;6.12;3.00;;;16.70;99.90;;;;;;935626;151;27353;-78
2022/10/24 05:09:51;;;;;;;3.83;2.30;;;16.70;99.90;;;;;;934856;149;27479;-78
2022/10/24 05:12:17;;;;;;;8.65;2.58;;;16.70;99.90;;;;;;934471;149;27791;-78
2022/10/24 05:14:46;;;;;;;3.72;2.33;;;16.70;99.90;;;;;;935810;148;27445;-79
2022/10/24 05:17:11;;;;;;;5.97;2.27;;;16.70;99.90;;;;;;934444;151;27432;-79
2022/10/24 05:19:37;;;;;;;5.47;2.50;;;16.70;99.90;;;;;;934563;149;27350;-79
2022/10/24 05:22:04;;;;;;;4.30;2.35;;;16.70;99.90;;;;;;934871;148;27386;-79
2022/10/24 05:24:30;;;;;;;4.50;2.35;;;16.70;99.90;;;;;;934226;148;27337;-79
2022/10/24 05:26:57;;;;;;;5.45;2.55;;;16.70;99.90;;;;;;935499;149;27331;-79
2022/10/24 05:29:24;;;;;;;12.03;2.45;;;16.80;99.90;;;;;;936674;149;27966;-79
2022/10/24 05:31:50;;;;;;;7.60;2.33;;;16.80;99.90;;;;;;932422;149;27424;-79
2022/10/24 05:34:17;;;;;;;4.30;2.37;;;16.80;99.90;;;;;;935533;148;27365;-79
2022/10/24 05:36:43;;;;;;;5.62;2.35;;;16.80;99.90;;;;;;934350;149;27962;-79
2022/10/24 05:39:10;;;;;;;4.75;2.45;;;16.80;99.90;;;;;;935259;149;27404;-79
2022/10/24 05:41:37;;;;;;;8.20;2.42;;;16.80;99.90;;;;;;935712;151;27726;-79
2022/10/24 05:44:03;;;;;;;6.40;2.35;;;16.80;99.90;;;;;;935342;149;27387;-79
2022/10/24 05:46:30;;;;;;;4.45;2.12;;;16.80;99.90;;;;;;936020;148;27263;-79
2022/10/24 05:48:56;;;;;;;4.58;2.55;;;16.80;99.90;;;;;;934310;149;27360;-79
2022/10/24 05:51:23;;;;;;;8.50;2.62;;;16.80;99.90;;;;;;935332;149;27464;-79
2022/10/24 05:53:50;;;;;;;3.10;2.17;;;16.80;99.90;;;;;;934248;149;27396;-79
2022/10/24 05:56:16;;;;;;;5.30;2.47;;;16.80;99.90;;;;;;934779;148;27370;-79
2022/10/24 05:58:43;;;;;;;6.12;2.25;;;16.80;99.90;;;;;;937322;151;27300;-79
2022/10/24 06:01:09;;;;;;;3.90;2.30;;;16.80;99.90;;;;;;935666;151;27489;-79
2022/10/24 06:03:36;;;;;;;6.22;2.35;;;16.80;99.90;;;;;;919031;151;27463;-79
2022/10/24 06:06:05;;;;;;;3.17;1.87;;;16.80;99.90;;;;;;921733;154;27378;-79
2022/10/24 06:08:35;;;;;;;4.40;1.85;;;16.80;99.90;;;;;;918834;154;27524;-79
2022/10/24 06:11:02;;;;;;;6.95;2.90;;;16.80;99.90;;;;;;936863;149;27339;-79
2022/10/24 06:13:28;;;;;;;4.45;2.37;;;16.80;99.90;;;;;;934128;149;27346;-79
2022/10/24 06:15:55;;;;;;;5.17;2.17;;;16.80;99.90;;;;;;935279;148;27336;-79
2022/10/24 06:18:21;;;;;;;4.42;2.00;;;16.80;99.90;;;;;;935448;148;27287;-78
2022/10/24 06:20:48;;;;;;;6.28;2.35;;;16.80;99.90;;;;;;937516;149;27334;-79
2022/10/24 06:23:14;;;;;;;4.33;2.37;;;16.80;99.90;;;;;;935745;151;27283;-79
2022/10/24 06:25:41;;;;;;;5.67;2.30;;;16.80;99.90;;;;;;934756;148;27912;-79
2022/10/24 06:28:08;;;;;;;4.33;2.15;;;16.80;99.90;;;;;;933152;148;27427;-79
2022/10/24 06:30:34;;;;;;;5.67;2.47;;;16.80;99.90;;;;;;935517;148;28844;-79
2022/10/24 06:33:02;;;;;;;5.80;2.67;;;16.80;99.90;;;;;;933844;151;27386;-79
2022/10/24 06:35:27;;;;;;;5.50;1.90;;;16.80;99.90;;;;;;934686;148;27314;-79
2022/10/24 06:37:54;;;;;;;4.17;2.52;;;16.80;99.90;;;;;;935910;148;27387;-79
2022/10/24 06:40:21;;;;;;;2.75;2.08;;;16.80;99.90;;;;;;934031;149;27368;-79
2022/10/24 06:42:47;;;;;;;2.00;1.80;;;16.80;99.90;;;;;;937043;151;27374;-79
2022/10/24 06:45:14;;;;;;;5.37;2.05;;;16.90;99.90;;;;;;919882;152;27401;-79
2022/10/24 06:47:40;;;;;;;4.05;2.10;;;16.90;99.90;;;;;;933902;151;27415;-78
2022/10/24 06:50:07;;;;;;;3.30;2.15;;;16.90;99.90;;;;;;935497;151;27413;-78
2022/10/24 06:52:34;;;;;;;2.85;1.98;;;16.90;99.90;;;;;;935413;151;27409;-78
2022/10/24 06:55:00;;;;;;;3.33;1.60;;;17.00;99.90;;;;;;936297;148;27427;-78
2022/10/24 06:57:27;;;;;;;4.55;2.10;;;17.00;99.90;;;;;;934764;149;27412;-78
2022/10/24 06:59:53;;;;;;;5.80;2.20;;;17.00;99.90;;;;;;934539;149;27420;-78
2022/10/24 07:02:20;;;;;;;8.60;2.55;;;17.10;99.90;;;;;;934278;151;27268;-78
2022/10/24 07:04:46;;;;;;;7.47;2.65;;;17.10;99.90;;;;;;936577;151;27418;-78
2022/10/24 07:07:16;;;;;;;3.62;1.98;;;17.20;99.90;;;;;;936757;148;27501;-79
2022/10/24 07:09:42;;;;;;;6.12;2.08;;;17.20;99.90;;;;;;936913;148;27269;-78
2022/10/24 07:12:09;;;;;;;4.15;2.05;;;17.30;99.90;;;;;;935906;148;27737;-78
2022/10/24 07:14:36;;;;;;;6.87;2.30;;;17.30;99.90;;;;;;935827;148;27305;-78
2022/10/24 07:17:02;;;;;;;5.70;2.98;;;17.40;99.90;;;;;;936066;148;27430;-78
2022/10/24 07:19:29;;;;;;;2.60;2.17;;;17.40;99.90;;;;;;933707;148;27113;-79
2022/10/24 07:21:55;;;;;;;8.30;2.87;;;17.50;99.90;;;;;;935595;148;27898;-78
2022/10/24 07:24:22;;;;;;;6.80;2.60;;;17.50;99.90;;;;;;935738;148;27437;-78
2022/10/24 07:26:49;;;;;;;4.55;2.25;;;17.50;99.90;;;;;;934714;148;27335;-78
2022/10/24 07:29:15;;;;;;;3.83;1.98;;;17.60;99.90;;;;;;933812;148;27397;-79
2022/10/24 07:31:42;;;;;;;7.72;2.33;;;17.60;99.90;;;;;;933158;148;27996;-78
2022/10/24 07:34:08;;;;;;;3.95;1.90;;;17.70;99.90;;;;;;933453;148;27349;-79
2022/10/24 07:36:35;;;;;;;8.35;2.08;;;17.70;99.90;;;;;;935975;148;27386;-78
2022/10/24 07:39:01;;;;;;;4.62;2.40;;;17.80;99.90;;;;;;920599;150;27268;-79
2022/10/24 07:41:28;;;;;;;3.52;1.85;;;17.90;99.90;;;;;;934244;148;27503;-79
2022/10/24 07:43:55;;;;;;;6.65;2.30;;;17.90;99.90;;;;;;932698;148;27512;-78
2022/10/24 07:46:21;;;;;;;6.05;2.20;;;17.90;99.90;;;;;;932690;148;27438;-79
2022/10/24 07:48:48;;;;;;;3.40;2.22;;;18.00;99.90;;;;;;933814;148;27313;-79
2022/10/24 07:51:14;;;;;;;4.12;2.00;;;18.10;99.90;;;;;;935399;148;27350;-79
2022/10/24 07:53:41;;;;;;;4.40;2.00;;;18.10;99.90;;;;;;934250;148;27401;-78
2022/10/24 07:56:09;;;;;;;6.65;2.52;;;18.20;99.90;;;;;;936559;148;27366;-78
2022/10/24 07:58:34;;;;;;;3.22;2.17;;;18.20;99.90;;;;;;933113;148;27361;-78
2022/10/24 08:01:04;;;;;;;5.60;2.62;;;18.20;99.90;;;;;;933710;148;27338;-78
2022/10/24 08:03:31;;;;;;;4.80;2.20;;;18.30;99.90;;;;;;931980;148;27930;-78
2022/10/24 08:05:57;;;;;;;4.70;2.30;;;18.40;99.90;;;;;;936231;148;27420;-78
2022/10/24 08:08:24;;;;;;;3.35;2.52;;;18.40;99.90;;;;;;946929;146;27404;-78
2022/10/24 08:10:50;;;;;;;2.80;2.15;;;18.50;99.90;;;;;;951414;146;27362;-78
2022/10/24 08:13:17;;;;;;;4.25;2.22;;;18.50;99.90;;;;;;952420;146;27371;-78
2022/10/24 08:15:44;;;;;;;2.90;1.72;;;18.60;99.90;;;;;;952905;146;27356;-78
2022/10/24 08:18:10;;;;;;;6.05;2.02;;;18.70;99.90;;;;;;949447;146;27385;-79
2022/10/24 08:20:37;;;;;;;5.72;3.05;;;18.80;99.90;;;;;;952227;146;27348;-78
2022/10/24 08:23:03;;;;;;;4.60;2.22;;;18.90;99.90;;;;;;950359;146;27402;-78
2022/10/24 08:25:30;;;;;;;6.00;2.20;;;18.90;99.90;;;;;;938720;151;27348;-78
2022/10/24 08:27:56;;;;;;;4.37;1.87;;;19.00;99.90;;;;;;939344;148;27445;-78
2022/10/24 08:30:23;;;;;;;2.72;1.82;;;19.10;99.90;;;;;;933433;149;27891;-78
2022/10/24 08:32:50;;;;;;;4.53;2.65;;;19.20;99.90;;;;;;949817;146;27371;-79
2022/10/24 08:35:16;;;;;;;3.98;2.30;;;19.20;99.90;;;;;;951565;146;27376;-78
2022/10/24 08:37:43;;;;;;;4.00;2.50;;;19.30;99.90;;;;;;931282;150;27380;-79
2022/10/24 08:40:11;;;;;;;6.62;3.20;;;19.50;99.90;;;;;;930988;149;27340;-79
2022/10/24 08:42:36;;;;;;;5.37;2.25;;;19.60;99.90;;;;;;932380;149;27381;-79
2022/10/24 08:45:03;;;;;;;4.47;2.27;;;19.70;99.90;;;;;;951474;146;27322;-79
2022/10/24 08:47:38;;;;;;;4.37;2.42;;;19.90;99.90;;;;;;953651;146;27336;-78
2022/10/24 08:50:22;;;;;;;4.65;2.65;;;20.00;99.90;;;;;;950031;146;27485;-78
2022/10/24 08:53:01;;;;;;;4.35;2.45;;;20.20;99.90;;;;;;936624;146;28841;-78
2022/10/24 08:55:31;;;;;;;3.70;2.02;;;20.30;99.90;;;;;;950131;146;27867;-78
2022/10/24 08:57:57;;;;;;;4.42;2.00;;;20.40;99.90;;;;;;948385;146;27407;-79
2022/10/24 09:00:30;;;;;;;4.30;2.40;;;20.50;99.90;;;;;;950382;146;27428;-78
2022/10/24 09:03:02;;;;;;;4.25;2.17;;;20.50;99.90;;;;;;952033;146;27438;-78
2022/10/24 09:05:29;;;;;;;4.30;3.08;;;20.50;99.90;;;;;;947824;146;27348;-78
2022/10/24 09:07:55;;;;;;;5.12;1.98;;;20.60;99.90;;;;;;935335;149;27984;-78
2022/10/24 09:10:43;;;;;;;4.30;2.27;;;20.60;99.90;;;;;;949603;146;27341;-78
2022/10/24 09:13:12;;;;;;;3.87;2.00;;;20.60;99.90;;;;;;949827;146;27389;-78
2022/10/24 09:15:39;;;;;;;5.05;2.10;;;20.70;99.90;;;;;;935154;149;27469;-77
2022/10/24 09:18:05;;;;;;;7.03;2.37;;;20.70;99.90;;;;;;933591;149;27522;-77
2022/10/24 09:20:32;;;;;;;5.12;2.50;;;20.80;99.90;;;;;;950599;146;27405;-78
2022/10/24 09:22:58;;;;;;;5.50;1.95;;;20.80;99.90;;;;;;935802;149;27688;-78
2022/10/24 09:25:28;;;;;;;5.58;3.02;;;21.00;99.90;;;;;;950773;146;27331;-78
2022/10/24 09:27:52;;;;;;;3.55;2.00;;;21.20;99.90;;;;;;948722;146;27873;-78
2022/10/24 09:30:18;;;;;;;5.10;2.12;;;21.40;99.90;;;;;;950054;146;27397;-78
2022/10/24 09:32:45;;;;;;;4.78;2.00;;;21.70;99.90;;;;;;939024;149;27790;-78
2022/10/24 09:35:14;;;;;;;4.03;2.00;;;22.00;99.90;;;;;;940763;150;27311;-78
2022/10/24 09:37:41;;;;;;;5.40;2.25;;;22.30;99.90;;;;;;939817;150;27432;-79
2022/10/24 09:40:22;;;;;;;5.15;2.12;;;22.60;99.90;;;;;;933690;149;27511;-78
2022/10/24 09:42:49;;;;;;;2.95;2.05;;;22.90;99.90;;;;;;950475;146;27436;-79
2022/10/24 09:45:24;;;;;;;3.37;1.92;;;23.40;99.90;;;;;;950642;146;27357;-79
2022/10/24 09:47:56;;;;;;;4.60;2.72;;;23.70;99.90;;;;;;950956;146;27466;-78
2022/10/24 09:50:23;;;;;;;3.98;2.40;;;24.10;99.90;;;;;;948245;146;27352;-78
2022/10/24 09:52:49;;;;;;;3.47;2.00;;;24.40;99.20;;;;;;952606;146;27447;-78
2022/10/24 09:55:16;;;;;;;3.98;2.50;;;24.70;96.60;;;;;;950598;146;27414;-78
2022/10/24 09:57:42;;;;;;;2.58;1.80;;;24.80;94.30;;;;;;951286;146;27310;-78
2022/10/24 10:00:30;;;;;;;5.45;2.42;;;24.80;92.90;;;;;;950710;146;27462;-79
2022/10/24 10:03:00;;;;;;;2.77;1.70;;;24.80;92.00;;;;;;949664;146;27444;-78
2022/10/24 10:05:26;;;;;;;4.22;2.10;;;24.70;91.20;;;;;;944513;149;27293;-78
2022/10/24 10:07:52;;;;;;;7.78;2.10;;;24.60;91.00;;;;;;951337;146;27321;-78
2022/10/24 10:10:19;;;;;;;4.50;1.87;;;24.50;90.60;;;;;;950904;146;27384;-78
2022/10/24 10:12:45;;;;;;;2.30;1.62;;;24.30;90.40;;;;;;950111;146;27389;-78
2022/10/24 10:15:27;;;;;;;5.03;1.87;;;24.20;90.60;;;;;;950525;146;27369;-78
2022/10/24 10:17:56;;;;;;;2.72;1.85;;;24.10;90.40;;;;;;951656;146;27314;-78
2022/10/24 10:20:23;;;;;;;3.92;1.57;;;24.00;90.60;;;;;;940842;149;27290;-78
2022/10/24 10:22:49;;;;;;;3.72;1.92;;;23.90;90.70;;;;;;941684;148;27646;-78
2022/10/24 10:25:28;;;;;;;3.65;1.52;;;23.90;90.30;;;;;;939823;150;27411;-78
2022/10/24 10:27:55;;;;;;;4.12;1.70;;;23.90;90.50;;;;;;940894;148;27420;-78
2022/10/24 10:30:21;;;;;;;2.58;1.42;;;23.90;90.80;;;;;;940951;150;27313;-78
2022/10/24 10:33:15;;;;;;;5.05;1.92;;;23.90;90.90;;;;;;943407;149;27403;-78
2022/10/24 10:36:04;;;;;;;3.10;2.00;;;23.90;90.90;;;;;;942159;149;27350;-78
2022/10/24 10:38:42;;;;;;;5.33;1.90;;;24.00;90.80;;;;;;935125;148;27345;-79
2022/10/24 10:41:20;;;;;;;3.98;1.62;;;24.10;90.30;;;;;;943387;150;27332;-79
2022/10/24 10:43:47;;;;;;;3.50;1.70;;;24.20;89.80;;;;;;940097;150;27351;-77
2022/10/24 10:46:35;;;;;;;6.22;2.55;;;24.20;88.20;;;;;;940284;149;27289;-78
2022/10/24 10:49:16;;;;;;;2.22;1.65;;;24.30;87.20;;;;;;916782;149;27442;-78
2022/10/24 10:51:43;;;;;;;6.03;2.17;;;24.30;85.60;;;;;;950385;146;27408;-78
2022/10/24 10:54:12;;;;;;;6.72;1.95;;;24.40;85.10;;;;;;933471;149;27450;-78
2022/10/24 10:56:53;;;;;;;4.90;1.90;;;24.40;85.30;;;;;;923004;151;27434;-78
2022/10/24 10:59:31;;;;;;;5.90;2.00;;;24.40;84.10;;;;;;935692;149;27430;-78
2022/10/24 11:02:32;;;;;;;3.98;1.72;;;24.50;84.10;;;;;;952436;146;27326;-78
2022/10/24 11:05:05;;;;;;;5.87;1.85;;;24.50;83.10;;;;;;951258;146;27265;-78
2022/10/24 11:07:34;;;;;;;4.17;1.67;;;24.50;82.60;;;;;;951575;146;27411;-77
2022/10/24 11:10:06;;;;;;;4.37;1.95;;;24.50;82.90;;;;;;950000;146;27420;-77
2022/10/24 11:12:38;;;;;;;2.80;1.85;;;24.50;82.30;;;;;;939353;148;27383;-78
2022/10/24 11:15:26;;;;;;;1.62;1.37;;;24.60;82.20;;;;;;939759;148;27319;-78
2022/10/24 11:18:11;;;;;;;4.03;1.90;;;24.60;82.20;;;;;;942335;148;27397;-78
2022/10/24 11:20:51;;;;;;;2.45;1.50;;;24.70;82.20;;;;;;942341;148;27360;-77
2022/10/24 11:23:16;;;;;;;4.35;1.80;;;24.80;79.70;;;;;;940211;148;27472;-77
2022/10/24 11:25:46;;;;;;;5.53;1.65;;;24.80;79.20;;;;;;940928;149;27721;-78
2022/10/24 11:28:18;;;;;;;1.92;1.60;;;24.90;78.50;;;;;;941192;148;27357;-77
2022/10/24 11:31:00;;;;;;;3.10;1.70;;;24.90;77.00;;;;;;942123;150;27402;-77
2022/10/24 11:33:42;;;;;;;5.47;1.70;;;25.00;77.00;;;;;;941153;148;27340;-78
2022/10/24 11:36:17;;;;;;;5.33;1.90;;;25.00;76.50;;;;;;932034;149;27761;-77
2022/10/24 11:38:50;;;;;;;3.80;1.57;;;25.00;76.40;;;;;;950448;146;27308;-77
2022/10/24 11:41:35;;;;;;;3.75;1.90;;;25.00;76.50;;;;;;940412;146;27298;-78
2022/10/24 11:44:01;;;;;;;2.42;1.98;;;25.00;76.10;;;;;;950716;146;27383;-77
2022/10/24 11:46:33;;;;;;;3.65;2.17;;;24.90;75.90;;;;;;947864;146;27349;-78
2022/10/24 11:49:00;;;;;;;4.65;1.87;;;24.90;76.40;;;;;;948641;146;27645;-77
2022/10/24 11:51:33;;;;;;;3.75;1.77;;;24.90;76.70;;;;;;951373;146;27365;-77
2022/10/24 11:54:05;;;;;;;4.67;1.90;;;24.90;76.80;;;;;;951250;146;27303;-77
2022/10/24 11:56:34;;;;;;;4.50;1.50;;;25.00;77.20;;;;;;948756;146;27256;-78
2022/10/24 11:59:01;;;;;;;4.30;1.95;;;25.00;76.60;;;;;;949152;146;27438;-78
2022/10/24 12:01:36;;;;;;;4.37;1.72;;;25.10;76.40;;;;;;951310;146;27360;-77
2022/10/24 12:04:24;;;;;;;4.55;1.80;;;25.10;76.20;;;;;;951448;146;27345;-78
2022/10/24 12:07:15;;;;;;;3.58;1.60;;;25.20;76.10;;;;;;943226;149;27317;-78
2022/10/24 12:09:47;;;;;;;2.67;1.70;;;25.20;75.80;;;;;;942092;150;27343;-78
2022/10/24 12:12:51;;;;;;;3.50;2.25;;;25.20;75.50;;;;;;940348;148;27376;-77
2022/10/24 12:15:32;;;;;;;2.47;1.50;;;25.20;75.20;;;;;;941943;150;27296;-77
2022/10/24 12:18:05;;;;;;;3.35;1.50;;;25.20;74.40;;;;;;939898;149;27502;-77
2022/10/24 12:20:32;;;;;;;2.52;1.60;;;25.10;74.30;;;;;;926291;149;28023;-77
2022/10/24 12:22:58;;;;;;;4.58;1.47;;;25.00;74.20;;;;;;937323;149;27377;-78
2022/10/24 12:25:37;;;;;;;1.80;1.00;;;24.90;74.50;;;;;;949132;146;27364;-78
2022/10/24 12:28:03;;;;;;;3.85;1.87;;;24.90;73.60;;;;;;952117;146;27425;-77
2022/10/24 12:30:30;;;;;;;2.47;1.50;;;24.80;73.70;;;;;;950921;146;27493;-78
2022/10/24 12:32:57;;;;;;;5.10;1.77;;;24.70;73.90;;;;;;952237;146;27397;-77
2022/10/24 12:35:26;;;;;;;2.40;1.55;;;24.70;74.00;;;;;;951462;146;27345;-78
2022/10/24 12:37:53;;;;;;;7.78;1.60;;;24.70;74.00;;;;;;949799;146;27454;-77
2022/10/24 12:40:44;;;;;;;1.77;1.45;;;24.70;73.80;;;;;;949802;146;27298;-78
2022/10/24 12:43:13;;;;;;;2.83;1.35;;;24.60;73.40;;;;;;950786;146;27297;-77
2022/10/24 12:45:40;;;;;;;3.20;1.25;;;24.60;73.30;;;;;;948613;146;27508;-78
2022/10/24 12:48:12;;;;;;;2.35;1.50;;;24.60;72.60;;;;;;949414;146;28120;-77
2022/10/24 12:50:39;;;;;;;2.62;1.50;;;24.60;71.60;;;;;;944287;149;27336;-77
2022/10/24 12:53:05;;;;;;;3.72;1.57;;;24.60;71.50;;;;;;951268;146;27407;-77
2022/10/24 12:55:38;;;;;;;3.05;1.47;;;24.60;71.40;;;;;;949680;146;27363;-77